首页
METAR-TAF:

METAR-TAF

机场 :

Mason City Municipal Airport

麦逊城, 艾奥瓦州, 美国

纬度: 43-09-28N, 经度: 093-19-53W, 海拔: 370米

当前天气观测

该预报发布于51分钟前的20:53 UTC
风速10节,风向,有时为14节阵风
温度 27°C
湿度 37%
气压 1019 hPa
能見度: 16.1公里
天空无云

METAR: KMCW 142053Z AUTO 35010G14KT 10SM CLR 27/11 A3008 RMK AO2 SLP175 T02720106 58007

时间: 16:44 (21:44 UTC)

预报

该预报发布于4小时和13分钟前的17:31 UTC
预报有效从14日的 18点(UTC)到 15日的 18点(UTC)
风速12节,风向北转西北
能見度: 10公里
少量云层高于25000英尺
从 14日的 2300点(UTC)
风速5节,风向多变
能見度: 10公里
多云层高于25000英尺
从 15日的 1000点(UTC)
风速9节,风向南转南东
能見度: 10公里
多云层高于15000英尺
从 15日的 1600点(UTC)
风速13节,风向南转南东,有时为22节阵风
能見度: 10公里
阴天层高于10000英尺

TAF: KMCW 141731Z 1418/1518 34012KT P6SM FEW250 FM142300 VRB05KT P6SM BKN250 FM151000 15009KT P6SM BKN150 FM151600 15013G22KT P6SM OVC100

超过4000个机场的气象观测和天气预报(METAR&TAF报告)。

可查询的气象台以黄色和红色小点在地图上表示。

将鼠标移到小点上方,可查看气象台名称。

然后点击查看天气观测和预报。

如需切换地图:点击带黑十字的绿色按钮放大地图;点击带横线的绿色按钮缩小地图;或者点击绿色箭头查看邻近地区的地图。


METAR-TAF: